SWR455 LSZH-EDDN
Flight info
| Callsign | SWR455 |
|---|---|
| Flight time | 0h 37m |
| Altitude | 30000 |
| Route | DEGES Z1 SUDEN/N0440F230 Z79 GUPIN N869 LETKU LETKU1V |
| Aircraft | A359/H-SDE2E3GHIJ3J4J5LM1ORWXY/LB1D1 |
Departure
| Time | 2026-04-26 12:55 |
|---|---|
| Airport | Zürich Airport (LSZH) |
Arrival
| Time | 2026-04-26 13:33 |
|---|---|
| Airport | Nuremberg Airport (EDDN) |
| Time | Latitude | Longitude | Altitude | Speed | Heading |
|---|---|---|---|---|---|
| 2026-04-26 12:09 | 47.46070 | 8.55238 | 1406 ft | 0 kts | 6° |
| 2026-04-26 12:29 | 47.46029 | 8.55226 | 1409 ft | 4 kts | 21° |
| 2026-04-26 12:30 | 47.46006 | 8.55209 | 1410 ft | 4 kts | 38° |
| 2026-04-26 12:30 | 47.45989 | 8.55181 | 1413 ft | 4 kts | 81° |
| 2026-04-26 12:30 | 47.45989 | 8.55170 | 1413 ft | 0 kts | 96° |
| 2026-04-26 12:33 | 47.45988 | 8.55171 | 1413 ft | 2 kts | 95° |
| 2026-04-26 12:33 | 47.45979 | 8.55325 | 1410 ft | 21 kts | 96° |
| 2026-04-26 12:33 | 47.45962 | 8.55538 | 1412 ft | 21 kts | 98° |
| 2026-04-26 12:34 | 47.45946 | 8.55756 | 1407 ft | 21 kts | 96° |
| 2026-04-26 12:34 | 47.45948 | 8.55941 | 1408 ft | 10 kts | 48° |
| 2026-04-26 12:34 | 47.45969 | 8.55966 | 1405 ft | 0 kts | 30° |
| 2026-04-26 12:34 | 47.45970 | 8.55966 | 1405 ft | 1 kts | 24° |
| 2026-04-26 12:35 | 47.45984 | 8.55971 | 1410 ft | 3 kts | 12° |
| 2026-04-26 12:35 | 47.46009 | 8.55979 | 1407 ft | 3 kts | 20° |
| 2026-04-26 12:35 | 47.46017 | 8.55999 | 1413 ft | 2 kts | 77° |
| 2026-04-26 12:35 | 47.46002 | 8.56199 | 1410 ft | 28 kts | 96° |
| 2026-04-26 12:36 | 47.45929 | 8.56377 | 1410 ft | 20 kts | 136° |
| 2026-04-26 12:36 | 47.45827 | 8.56514 | 1413 ft | 12 kts | 136° |
| 2026-04-26 12:36 | 47.45797 | 8.56608 | 1415 ft | 9 kts | 97° |
| 2026-04-26 12:36 | 47.45788 | 8.56707 | 1413 ft | 2 kts | 97° |
| 2026-04-26 12:37 | 47.45786 | 8.56723 | 1409 ft | 0 kts | 97° |
| 2026-04-26 12:37 | 47.45786 | 8.56732 | 1408 ft | 6 kts | 96° |
| 2026-04-26 12:38 | 47.45785 | 8.56751 | 1410 ft | 0 kts | 94° |
| 2026-04-26 12:39 | 47.45784 | 8.56770 | 1407 ft | 7 kts | 94° |
| 2026-04-26 12:40 | 47.45780 | 8.56845 | 1411 ft | 0 kts | 94° |
| 2026-04-26 12:40 | 47.45780 | 8.56854 | 1411 ft | 0 kts | 95° |
| 2026-04-26 12:42 | 47.45780 | 8.56855 | 1405 ft | 2 kts | 95° |
| 2026-04-26 12:42 | 47.45777 | 8.56905 | 1410 ft | 0 kts | 96° |
| 2026-04-26 12:43 | 47.45775 | 8.56922 | 1409 ft | 0 kts | 97° |
| 2026-04-26 12:52 | 47.45747 | 8.57006 | 1415 ft | 12 kts | 136° |
| 2026-04-26 12:53 | 47.45685 | 8.57030 | 1417 ft | 6 kts | 185° |
| 2026-04-26 12:53 | 47.45665 | 8.56987 | 1418 ft | 6 kts | 259° |
| 2026-04-26 12:53 | 47.45667 | 8.56954 | 1416 ft | 0 kts | 278° |
| 2026-04-26 12:55 | 47.45688 | 8.56699 | 1417 ft | 72 kts | 274° |
| 2026-04-26 12:55 | 47.45776 | 8.55422 | 1404 ft | 174 kts | 276° |
| 2026-04-26 12:55 | 47.45927 | 8.53415 | 2162 ft | 209 kts | 279° |
| 2026-04-26 12:55 | 47.46085 | 8.51189 | 3438 ft | 225 kts | 279° |
| 2026-04-26 12:56 | 47.45814 | 8.48951 | 4298 ft | 225 kts | 242° |
| 2026-04-26 12:56 | 47.44723 | 8.47323 | 4830 ft | 232 kts | 213° |
| 2026-04-26 12:56 | 47.43509 | 8.45750 | 4943 ft | 236 kts | 234° |
| 2026-04-26 12:56 | 47.42973 | 8.43487 | 4973 ft | 233 kts | 265° |
| 2026-04-26 12:57 | 47.42879 | 8.41091 | 4984 ft | 234 kts | 269° |
| 2026-04-26 12:57 | 47.42783 | 8.38703 | 4978 ft | 233 kts | 261° |
| 2026-04-26 12:57 | 47.42124 | 8.36537 | 5191 ft | 238 kts | 228° |
| 2026-04-26 12:58 | 47.39170 | 8.35284 | 7152 ft | 226 kts | 162° |
| 2026-04-26 12:58 | 47.37840 | 8.36473 | 8193 ft | 229 kts | 133° |
| 2026-04-26 12:58 | 47.37118 | 8.38574 | 9100 ft | 237 kts | 100° |
| 2026-04-26 12:58 | 47.37197 | 8.41030 | 9915 ft | 250 kts | 81° |
| 2026-04-26 12:59 | 47.37698 | 8.43641 | 10340 ft | 279 kts | 69° |
| 2026-04-26 12:59 | 47.38521 | 8.46345 | 10982 ft | 296 kts | 63° |
| 2026-04-26 12:59 | 47.39538 | 8.49080 | 11627 ft | 316 kts | 59° |
| 2026-04-26 12:59 | 47.40723 | 8.51955 | 12046 ft | 341 kts | 57° |
| 2026-04-26 13:00 | 47.42039 | 8.55000 | 12627 ft | 359 kts | 56° |
| 2026-04-26 13:00 | 47.43400 | 8.58117 | 13522 ft | 366 kts | 56° |
| 2026-04-26 13:00 | 47.44789 | 8.61322 | 14341 ft | 374 kts | 57° |
| 2026-04-26 13:00 | 47.46168 | 8.64542 | 15183 ft | 378 kts | 57° |
| 2026-04-26 13:01 | 47.47574 | 8.67859 | 16043 ft | 383 kts | 56° |
| 2026-04-26 13:01 | 47.48990 | 8.71226 | 16916 ft | 387 kts | 57° |
| 2026-04-26 13:01 | 47.50414 | 8.74629 | 17769 ft | 392 kts | 57° |
| 2026-04-26 13:01 | 47.51862 | 8.78099 | 18575 ft | 399 kts | 56° |
| 2026-04-26 13:02 | 47.53329 | 8.81614 | 19287 ft | 404 kts | 57° |
| 2026-04-26 13:02 | 47.54811 | 8.85173 | 20066 ft | 409 kts | 57° |
| 2026-04-26 13:02 | 47.56264 | 8.88664 | 20785 ft | 414 kts | 57° |
| 2026-04-26 13:02 | 47.57839 | 8.92452 | 21572 ft | 420 kts | 57° |
| 2026-04-26 13:03 | 47.59380 | 8.96161 | 22305 ft | 426 kts | 57° |
| 2026-04-26 13:03 | 47.60942 | 8.99927 | 23012 ft | 432 kts | 57° |
| 2026-04-26 13:03 | 47.62526 | 9.03751 | 23714 ft | 438 kts | 57° |
| 2026-04-26 13:03 | 47.64120 | 9.07607 | 24073 ft | 439 kts | 57° |
| 2026-04-26 13:04 | 47.65718 | 9.11480 | 24213 ft | 441 kts | 57° |
| 2026-04-26 13:04 | 47.67329 | 9.15387 | 24211 ft | 444 kts | 57° |
| 2026-04-26 13:04 | 47.68943 | 9.19306 | 24210 ft | 445 kts | 57° |
| 2026-04-26 13:04 | 47.70560 | 9.23240 | 24193 ft | 446 kts | 57° |
| 2026-04-26 13:05 | 47.72156 | 9.27128 | 24193 ft | 446 kts | 57° |
| 2026-04-26 13:05 | 47.73767 | 9.31058 | 24203 ft | 445 kts | 57° |
| 2026-04-26 13:05 | 47.75419 | 9.34967 | 24193 ft | 444 kts | 54° |
| 2026-04-26 13:05 | 47.77358 | 9.38528 | 24202 ft | 442 kts | 45° |
| 2026-04-26 13:06 | 47.79651 | 9.41564 | 24218 ft | 439 kts | 34° |
| 2026-04-26 13:06 | 47.82215 | 9.43909 | 24205 ft | 436 kts | 24° |
| 2026-04-26 13:06 | 47.85040 | 9.45462 | 24203 ft | 432 kts | 11° |
| 2026-04-26 13:06 | 47.87992 | 9.46268 | 24198 ft | 429 kts | 3° |
| 2026-04-26 13:07 | 47.90974 | 9.46565 | 24202 ft | 428 kts | 358° |
| 2026-04-26 13:07 | 47.93943 | 9.46585 | 24201 ft | 427 kts | 356° |
| 2026-04-26 13:07 | 47.96924 | 9.46493 | 24200 ft | 427 kts | 355° |
| 2026-04-26 13:07 | 47.99857 | 9.46385 | 24201 ft | 427 kts | 355° |
| 2026-04-26 13:08 | 48.02838 | 9.46296 | 24203 ft | 427 kts | 356° |
| 2026-04-26 13:08 | 48.05826 | 9.46238 | 24205 ft | 427 kts | 356° |
| 2026-04-26 13:08 | 48.07958 | 9.46213 | 24205 ft | 427 kts | 356° |
| 2026-04-26 13:08 | 48.10933 | 9.46194 | 24207 ft | 428 kts | 356° |
| 2026-04-26 13:09 | 48.13874 | 9.46186 | 24206 ft | 428 kts | 356° |
| 2026-04-26 13:09 | 48.16848 | 9.46182 | 24208 ft | 428 kts | 356° |
| 2026-04-26 13:09 | 48.19835 | 9.46178 | 24208 ft | 428 kts | 357° |
| 2026-04-26 13:09 | 48.22813 | 9.46181 | 24210 ft | 428 kts | 357° |
| 2026-04-26 13:10 | 48.25802 | 9.46190 | 24211 ft | 428 kts | 357° |
| 2026-04-26 13:10 | 48.28780 | 9.46197 | 24213 ft | 428 kts | 357° |
| 2026-04-26 13:10 | 48.31692 | 9.46203 | 24209 ft | 428 kts | 357° |
| 2026-04-26 13:10 | 48.34677 | 9.46207 | 24208 ft | 429 kts | 357° |
| 2026-04-26 13:11 | 48.37668 | 9.46210 | 24215 ft | 429 kts | 357° |
| 2026-04-26 13:11 | 48.40589 | 9.46212 | 24213 ft | 429 kts | 357° |
| 2026-04-26 13:11 | 48.43579 | 9.46214 | 24218 ft | 429 kts | 357° |
| 2026-04-26 13:11 | 48.46563 | 9.46216 | 24219 ft | 429 kts | 357° |
| 2026-04-26 13:12 | 48.49551 | 9.46396 | 24220 ft | 431 kts | 2° |
| 2026-04-26 13:12 | 48.52527 | 9.47127 | 24218 ft | 433 kts | 11° |
| 2026-04-26 13:12 | 48.55406 | 9.48491 | 24220 ft | 436 kts | 19° |
| 2026-04-26 13:12 | 48.58183 | 9.50393 | 24221 ft | 438 kts | 24° |
| 2026-04-26 13:13 | 48.60896 | 9.52468 | 24221 ft | 438 kts | 25° |
| 2026-04-26 13:13 | 48.63583 | 9.54634 | 24220 ft | 438 kts | 26° |
| 2026-04-26 13:13 | 48.66274 | 9.56849 | 24219 ft | 438 kts | 26° |
| 2026-04-26 13:13 | 48.68954 | 9.59061 | 24227 ft | 438 kts | 26° |
| 2026-04-26 13:14 | 48.71602 | 9.61237 | 24226 ft | 438 kts | 26° |
| 2026-04-26 13:14 | 48.74284 | 9.63429 | 24223 ft | 438 kts | 26° |
| 2026-04-26 13:14 | 48.76981 | 9.65624 | 24227 ft | 437 kts | 26° |
| 2026-04-26 13:14 | 48.79665 | 9.67804 | 24228 ft | 437 kts | 26° |
| 2026-04-26 13:15 | 48.82345 | 9.69981 | 24232 ft | 437 kts | 26° |
| 2026-04-26 13:15 | 48.85016 | 9.72170 | 24232 ft | 437 kts | 27° |
| 2026-04-26 13:15 | 48.87557 | 9.74729 | 24235 ft | 440 kts | 36° |
| 2026-04-26 13:15 | 48.89090 | 9.76761 | 24247 ft | 441 kts | 43° |
| 2026-04-26 13:16 | 48.91844 | 9.81337 | 24236 ft | 442 kts | 48° |
| 2026-04-26 13:16 | 48.93814 | 9.84930 | 24235 ft | 443 kts | 50° |
| 2026-04-26 13:16 | 48.95745 | 9.88578 | 24239 ft | 443 kts | 50° |
| 2026-04-26 13:16 | 48.97670 | 9.92261 | 24235 ft | 443 kts | 50° |
| 2026-04-26 13:17 | 49.01503 | 9.99588 | 24238 ft | 443 kts | 50° |
| 2026-04-26 13:17 | 49.03444 | 10.03277 | 24238 ft | 443 kts | 50° |
| 2026-04-26 13:18 | 49.07300 | 10.10580 | 24244 ft | 443 kts | 50° |
| 2026-04-26 13:18 | 49.09242 | 10.14257 | 24251 ft | 443 kts | 50° |
| 2026-04-26 13:18 | 49.13106 | 10.21582 | 24249 ft | 443 kts | 50° |
| 2026-04-26 13:19 | 49.15154 | 10.25081 | 24252 ft | 443 kts | 45° |
| 2026-04-26 13:19 | 49.17281 | 10.28492 | 24257 ft | 443 kts | 44° |
| 2026-04-26 13:19 | 49.19433 | 10.31864 | 24260 ft | 443 kts | 44° |
| 2026-04-26 13:19 | 49.21567 | 10.35172 | 24273 ft | 443 kts | 43° |
| 2026-04-26 13:20 | 49.23700 | 10.38467 | 24262 ft | 443 kts | 43° |
| 2026-04-26 13:20 | 49.25881 | 10.41803 | 24257 ft | 443 kts | 43° |
| 2026-04-26 13:20 | 49.28065 | 10.45120 | 24261 ft | 443 kts | 43° |
| 2026-04-26 13:20 | 49.30245 | 10.48439 | 24250 ft | 442 kts | 43° |
| 2026-04-26 13:21 | 49.32428 | 10.51774 | 24247 ft | 442 kts | 43° |
| 2026-04-26 13:21 | 49.33869 | 10.53980 | 24247 ft | 442 kts | 43° |
| 2026-04-26 13:21 | 49.36775 | 10.58442 | 24247 ft | 442 kts | 43° |
| 2026-04-26 13:21 | 49.38804 | 10.61592 | 24247 ft | 442 kts | 43° |
| 2026-04-26 13:22 | 49.40903 | 10.65068 | 24248 ft | 444 kts | 50° |
| 2026-04-26 13:22 | 49.42435 | 10.69168 | 24252 ft | 446 kts | 68° |
| 2026-04-26 13:22 | 49.43131 | 10.73779 | 24025 ft | 437 kts | 85° |
| 2026-04-26 13:22 | 49.43002 | 10.78289 | 23091 ft | 423 kts | 99° |
| 2026-04-26 13:23 | 49.42480 | 10.82773 | 21734 ft | 420 kts | 102° |
| 2026-04-26 13:23 | 49.41951 | 10.87118 | 20595 ft | 415 kts | 101° |
| 2026-04-26 13:23 | 49.41462 | 10.91442 | 19517 ft | 407 kts | 100° |
| 2026-04-26 13:23 | 49.41008 | 10.95699 | 18463 ft | 400 kts | 99° |
| 2026-04-26 13:24 | 49.40579 | 10.99885 | 17260 ft | 393 kts | 99° |
| 2026-04-26 13:24 | 49.40161 | 11.04010 | 16083 ft | 387 kts | 99° |
| 2026-04-26 13:24 | 49.39752 | 11.08081 | 14950 ft | 382 kts | 98° |
| 2026-04-26 13:24 | 49.39352 | 11.12087 | 13820 ft | 377 kts | 98° |
| 2026-04-26 13:25 | 49.38962 | 11.15978 | 12667 ft | 371 kts | 98° |
| 2026-04-26 13:25 | 49.38565 | 11.19851 | 11556 ft | 364 kts | 98° |
| 2026-04-26 13:25 | 49.38166 | 11.23649 | 10457 ft | 358 kts | 98° |
| 2026-04-26 13:25 | 49.37761 | 11.27393 | 9469 ft | 349 kts | 98° |
| 2026-04-26 13:26 | 49.37375 | 11.30942 | 8979 ft | 324 kts | 98° |
| 2026-04-26 13:26 | 49.37066 | 11.34256 | 8541 ft | 303 kts | 96° |
| 2026-04-26 13:26 | 49.37128 | 11.37390 | 7845 ft | 291 kts | 74° |
| 2026-04-26 13:26 | 49.37996 | 11.40119 | 7095 ft | 282 kts | 49° |
| 2026-04-26 13:27 | 49.39504 | 11.41931 | 6370 ft | 273 kts | 23° |
| 2026-04-26 13:27 | 49.41272 | 11.42918 | 5699 ft | 272 kts | 15° |
| 2026-04-26 13:27 | 49.43077 | 11.43699 | 5327 ft | 269 kts | 14° |
| 2026-04-26 13:27 | 49.44876 | 11.44094 | 5107 ft | 257 kts | 353° |
| 2026-04-26 13:28 | 49.46437 | 11.43008 | 4952 ft | 243 kts | 317° |
| 2026-04-26 13:28 | 49.47214 | 11.40847 | 4666 ft | 226 kts | 280° |
| 2026-04-26 13:28 | 49.47351 | 11.38548 | 4482 ft | 209 kts | 275° |
| 2026-04-26 13:28 | 49.47356 | 11.36384 | 4265 ft | 195 kts | 267° |
| 2026-04-26 13:29 | 49.47388 | 11.34336 | 4015 ft | 190 kts | 276° |
| 2026-04-26 13:29 | 49.47465 | 11.33004 | 3979 ft | 190 kts | 276° |
| 2026-04-26 13:29 | 49.47675 | 11.30341 | 3836 ft | 188 kts | 280° |
| 2026-04-26 13:29 | 49.47857 | 11.28398 | 3593 ft | 178 kts | 279° |
| 2026-04-26 13:30 | 49.48031 | 11.26560 | 3369 ft | 168 kts | 279° |
| 2026-04-26 13:30 | 49.48196 | 11.24829 | 3139 ft | 161 kts | 279° |
| 2026-04-26 13:30 | 49.48358 | 11.23165 | 2893 ft | 154 kts | 281° |
| 2026-04-26 13:30 | 49.48511 | 11.21567 | 2688 ft | 146 kts | 284° |
| 2026-04-26 13:31 | 49.48659 | 11.20087 | 2513 ft | 141 kts | 282° |
| 2026-04-26 13:31 | 49.48810 | 11.18545 | 2304 ft | 152 kts | 282° |
| 2026-04-26 13:31 | 49.48955 | 11.16994 | 2054 ft | 139 kts | 281° |
| 2026-04-26 13:31 | 49.49089 | 11.15557 | 1818 ft | 132 kts | 283° |
| 2026-04-26 13:32 | 49.49243 | 11.14174 | 1620 ft | 132 kts | 283° |
| 2026-04-26 13:32 | 49.49388 | 11.12788 | 1461 ft | 131 kts | 278° |
| 2026-04-26 13:32 | 49.49508 | 11.11398 | 1320 ft | 131 kts | 280° |
| 2026-04-26 13:32 | 49.49649 | 11.09999 | 1146 ft | 133 kts | 281° |
| 2026-04-26 13:33 | 49.49764 | 11.08887 | 1051 ft | 122 kts | 281° |
| 2026-04-26 13:33 | 49.49866 | 11.07905 | 1035 ft | 42 kts | 277° |
| 2026-04-26 13:33 | 49.49882 | 11.07691 | 1033 ft | 12 kts | 265° |
| 2026-04-26 13:33 | 49.49875 | 11.07651 | 1029 ft | 1 kts | 246° |
| 2026-04-26 13:34 | 49.49852 | 11.07644 | 1028 ft | 6 kts | 178° |
| 2026-04-26 13:34 | 49.49777 | 11.07685 | 1028 ft | 14 kts | 152° |
| 2026-04-26 13:34 | 49.49716 | 11.07733 | 1028 ft | 10 kts | 152° |
| 2026-04-26 13:34 | 49.49695 | 11.07749 | 1030 ft | 11 kts | 157° |
| 2026-04-26 13:35 | 49.49578 | 11.07820 | 1032 ft | 11 kts | 113° |
| 2026-04-26 13:35 | 49.49567 | 11.07943 | 1034 ft | 13 kts | 98° |
| 2026-04-26 13:35 | 49.49552 | 11.08099 | 1033 ft | 16 kts | 98° |
| 2026-04-26 13:35 | 49.49535 | 11.08277 | 1035 ft | 18 kts | 98° |
| 2026-04-26 13:36 | 49.49501 | 11.08429 | 1037 ft | 12 kts | 102° |
| 2026-04-26 13:36 | 49.49506 | 11.08472 | 1038 ft | 4 kts | 62° |
| 2026-04-26 13:36 | 49.49536 | 11.08499 | 1039 ft | 4 kts | 15° |
| 2026-04-26 13:36 | 49.49543 | 11.08501 | 1039 ft | 0 kts | 11° |